createdAt,value
2018-05-09T00:00:20.631Z,11.40
2018-05-09T00:02:48.849Z,15.87
2018-05-09T00:05:16.428Z,11.53
2018-05-09T00:07:45.382Z,11.13
2018-05-09T00:10:12.912Z,14.47
2018-05-09T00:12:41.130Z,10.77
2018-05-09T00:15:08.590Z,11.20
2018-05-09T00:17:36.161Z,10.97
2018-05-09T00:20:03.813Z,11.03
2018-05-09T00:22:31.346Z,13.00
2018-05-09T00:24:58.785Z,10.63
2018-05-09T00:27:26.386Z,11.10
2018-05-09T00:29:54.032Z,11.33
2018-05-09T00:32:21.494Z,11.87
2018-05-09T00:34:48.958Z,10.07
2018-05-09T00:37:16.426Z,9.97
2018-05-09T00:39:43.868Z,11.40
2018-05-09T00:42:11.540Z,12.30
2018-05-09T00:44:39.199Z,11.43
2018-05-09T00:47:06.726Z,11.27
2018-05-09T00:49:34.387Z,9.70
2018-05-09T00:52:01.977Z,10.07
2018-05-09T00:54:33.108Z,13.13
2018-05-09T00:57:00.565Z,13.27
2018-05-09T00:59:28.233Z,10.20
2018-05-09T01:01:55.705Z,10.33
2018-05-09T01:04:23.166Z,11.00
2018-05-09T01:06:50.674Z,10.07
2018-05-09T01:09:18.213Z,12.33
2018-05-09T01:11:45.708Z,9.63
2018-05-09T01:14:13.263Z,11.87
2018-05-09T01:16:40.717Z,8.47
2018-05-09T01:19:08.277Z,11.70
2018-05-09T01:21:35.932Z,9.80
2018-05-09T01:24:03.435Z,9.47
2018-05-09T01:26:31.053Z,16.27
2018-05-09T01:28:58.734Z,8.00
2018-05-09T01:31:26.299Z,8.30
2018-05-09T01:33:53.839Z,6.93
2018-05-09T01:36:21.310Z,8.27
2018-05-09T01:38:48.954Z,7.93
2018-05-09T01:41:16.426Z,7.30
2018-05-09T01:43:45.505Z,9.90
2018-05-09T01:46:13.037Z,6.83
2018-05-09T01:48:40.483Z,6.17
2018-05-09T01:51:07.940Z,9.17
2018-05-09T01:53:35.380Z,6.53
2018-05-09T01:56:02.998Z,6.63
2018-05-09T01:58:30.662Z,7.33
2018-05-09T02:00:58.112Z,8.37
2018-05-09T02:03:25.863Z,6.23
2018-05-09T02:05:54.097Z,5.80
2018-05-09T02:08:21.574Z,5.50
2018-05-09T02:10:49.041Z,6.63
2018-05-09T02:13:16.493Z,6.80
2018-05-09T02:15:43.938Z,7.13
2018-05-09T02:18:11.528Z,7.17
2018-05-09T02:20:39.203Z,6.97
2018-05-09T02:23:06.721Z,5.40
2018-05-09T02:25:34.249Z,10.23
2018-05-09T02:28:02.452Z,6.50
2018-05-09T02:30:30.000Z,7.40
2018-05-09T02:32:57.510Z,6.10
2018-05-09T02:35:25.035Z,8.00
2018-05-09T02:37:52.490Z,7.10
2018-05-09T02:40:20.269Z,6.67
2018-05-09T02:42:47.809Z,6.47
2018-05-09T02:45:15.248Z,9.37
2018-05-09T02:47:42.722Z,7.73
2018-05-09T02:50:10.305Z,8.40
2018-05-09T02:52:37.780Z,7.30
2018-05-09T02:55:05.233Z,9.50
2018-05-09T02:57:32.691Z,7.43
2018-05-09T03:00:00.228Z,8.13
2018-05-09T03:02:27.663Z,7.93
2018-05-09T03:04:55.100Z,6.93
2018-05-09T03:07:22.720Z,7.63
2018-05-09T03:09:50.219Z,11.30
2018-05-09T03:12:17.652Z,6.03
2018-05-09T03:14:45.135Z,8.57
2018-05-09T03:17:12.712Z,7.07
2018-05-09T03:19:40.391Z,9.80
2018-05-09T03:22:07.850Z,7.57
2018-05-09T03:24:35.493Z,6.07
2018-05-09T03:27:03.035Z,7.67
2018-05-09T03:29:30.631Z,10.80
2018-05-09T03:31:58.273Z,8.30
2018-05-09T03:34:25.741Z,7.27
2018-05-09T03:36:53.388Z,7.10
2018-05-09T03:39:21.054Z,7.20
2018-05-09T03:41:48.709Z,9.10
2018-05-09T03:44:16.182Z,6.93
2018-05-09T03:46:43.633Z,7.03
2018-05-09T03:49:11.297Z,8.63
2018-05-09T03:51:38.763Z,9.53
2018-05-09T03:54:06.197Z,7.57
2018-05-09T03:56:33.670Z,8.87
2018-05-09T03:59:01.193Z,8.73
2018-05-09T04:01:28.647Z,8.50
2018-05-09T04:04:08.091Z,8.67
2018-05-09T04:06:47.463Z,7.57
2018-05-09T04:09:26.992Z,7.13
2018-05-09T04:11:54.526Z,7.57
2018-05-09T04:14:22.097Z,7.50
2018-05-09T04:16:49.582Z,7.60
2018-05-09T04:19:17.114Z,12.00
2018-05-09T04:21:44.672Z,12.20
2018-05-09T04:24:12.208Z,12.20
2018-05-09T04:26:39.668Z,12.67
2018-05-09T04:29:08.061Z,17.73
2018-05-09T04:31:35.819Z,15.90
2018-05-09T04:34:03.416Z,18.87
2018-05-09T04:36:30.896Z,19.50
2018-05-09T04:38:58.381Z,21.27
2018-05-09T04:41:25.843Z,18.20
2018-05-09T04:43:53.536Z,19.63
2018-05-09T04:46:21.112Z,25.67
2018-05-09T04:48:48.557Z,25.50
2018-05-09T04:51:17.520Z,26.57
2018-05-09T04:53:44.975Z,27.20
2018-05-09T04:56:12.418Z,27.43
2018-05-09T04:58:40.081Z,28.27
2018-05-09T05:01:07.535Z,27.73
2018-05-09T05:03:34.988Z,28.07
2018-05-09T05:06:02.443Z,30.20
2018-05-09T05:08:30.018Z,31.50
2018-05-09T05:10:57.482Z,31.98
2018-05-09T05:13:25.027Z,30.53
2018-05-09T05:15:52.620Z,31.27
2018-05-09T05:18:20.139Z,28.03
2018-05-09T05:20:47.579Z,28.03
2018-05-09T05:23:15.178Z,32.00
2018-05-09T05:25:42.651Z,33.33
2018-05-09T05:28:10.298Z,27.90
2018-05-09T05:30:37.957Z,28.77
2018-05-09T05:33:05.788Z,34.27
2018-05-09T05:35:33.226Z,34.57
2018-05-09T05:38:00.808Z,34.80
2018-05-09T05:40:29.617Z,29.90
2018-05-09T05:42:57.279Z,32.27
2018-05-09T05:45:24.844Z,29.00
2018-05-09T05:47:52.271Z,29.07
2018-05-09T05:50:19.875Z,27.77
2018-05-09T05:52:47.343Z,32.80
2018-05-09T05:55:14.794Z,29.60
2018-05-09T05:57:42.243Z,28.40
2018-05-09T06:00:09.776Z,28.93
2018-05-09T06:02:38.025Z,27.57
2018-05-09T06:05:06.437Z,28.87
2018-05-09T06:07:33.971Z,28.23
2018-05-09T06:10:01.514Z,27.57
2018-05-09T06:12:28.957Z,28.57
2018-05-09T06:14:56.670Z,25.97
2018-05-09T06:17:24.193Z,25.93
2018-05-09T06:19:51.666Z,25.37
2018-05-09T06:22:19.236Z,25.17
2018-05-09T06:24:46.907Z,27.90
2018-05-09T06:27:14.553Z,24.73
2018-05-09T06:29:42.011Z,25.93
2018-05-09T06:32:09.589Z,24.33
2018-05-09T06:34:37.018Z,38.53
2018-05-09T06:37:04.614Z,27.20
2018-05-09T06:39:32.227Z,23.80
2018-05-09T06:41:59.664Z,20.43
2018-05-09T06:44:27.370Z,22.70
2018-05-09T06:46:54.890Z,22.63
2018-05-09T06:49:22.476Z,22.80
2018-05-09T06:51:50.006Z,18.03
2018-05-09T06:54:17.456Z,19.03
2018-05-09T06:56:44.932Z,19.83
2018-05-09T06:59:12.535Z,22.57
2018-05-09T07:01:40.175Z,20.57
2018-05-09T07:04:07.830Z,19.07
2018-05-09T07:06:35.574Z,21.50
2018-05-09T07:09:02.899Z,19.20
2018-05-09T07:11:30.413Z,23.60
2018-05-09T07:13:57.883Z,20.50
2018-05-09T07:16:25.514Z,19.33
2018-05-09T07:18:52.988Z,17.10
2018-05-09T07:21:20.447Z,15.73
2018-05-09T07:23:47.898Z,20.37
2018-05-09T07:26:15.421Z,17.07
2018-05-09T07:28:42.955Z,19.13
2018-05-09T07:31:11.180Z,20.17
2018-05-09T07:33:38.740Z,19.97
2018-05-09T07:36:06.279Z,22.20
2018-05-09T07:38:33.882Z,21.47
2018-05-09T07:41:01.523Z,18.37
2018-05-09T07:43:29.046Z,20.80
2018-05-09T07:45:56.494Z,23.70
2018-05-09T07:48:24.084Z,20.97
2018-05-09T07:50:51.774Z,26.47
2018-05-09T07:53:19.417Z,21.57
2018-05-09T07:55:48.492Z,28.60
2018-05-09T07:58:15.970Z,17.40
2018-05-09T08:00:43.620Z,20.73
2018-05-09T08:03:11.151Z,21.07
2018-05-09T08:05:38.737Z,22.80
2018-05-09T08:08:06.200Z,22.30
2018-05-09T08:10:33.653Z,20.00
2018-05-09T08:13:01.404Z,15.53
2018-05-09T08:15:29.675Z,16.20
2018-05-09T08:17:57.123Z,15.30
2018-05-09T08:20:24.765Z,18.33
2018-05-09T08:22:53.125Z,15.97
2018-05-09T08:25:21.357Z,16.00
2018-05-09T08:27:50.027Z,19.63
2018-05-09T08:30:17.989Z,17.33
2018-05-09T08:32:45.435Z,19.33
2018-05-09T08:35:12.921Z,13.93
2018-05-09T08:37:40.463Z,11.73
2018-05-09T08:40:07.900Z,16.57
2018-05-09T08:42:35.495Z,14.57
2018-05-09T08:45:02.952Z,13.50
2018-05-09T08:47:30.808Z,15.37
2018-05-09T08:49:58.337Z,14.30
2018-05-09T08:52:26.920Z,12.33
2018-05-09T08:54:54.371Z,9.93
2018-05-09T08:57:22.071Z,16.50
2018-05-09T08:59:50.165Z,21.40
2018-05-09T09:02:17.677Z,14.00
2018-05-09T09:04:45.767Z,12.33
2018-05-09T09:07:13.273Z,12.30
2018-05-09T09:09:42.182Z,16.33
2018-05-09T09:12:09.652Z,16.63
2018-05-09T09:14:37.087Z,14.67
2018-05-09T09:17:04.573Z,21.23
2018-05-09T09:19:32.529Z,15.83
2018-05-09T09:22:00.150Z,19.17
2018-05-09T09:24:27.770Z,24.07
2018-05-09T09:26:55.501Z,24.07
2018-05-09T09:29:23.281Z,16.33
2018-05-09T09:31:51.723Z,18.20
2018-05-09T09:34:20.321Z,17.43
2018-05-09T09:36:47.774Z,19.20
2018-05-09T09:39:15.578Z,18.70
2018-05-09T09:41:43.056Z,17.20
2018-05-09T09:44:11.260Z,15.33
2018-05-09T09:46:38.709Z,17.03
2018-05-09T09:49:06.226Z,19.00
2018-05-09T09:51:33.873Z,13.63
2018-05-09T09:54:01.543Z,17.77
2018-05-09T09:56:29.014Z,23.63
2018-05-09T09:58:57.263Z,16.03
2018-05-09T10:01:25.218Z,19.47
2018-05-09T10:03:52.784Z,16.40
2018-05-09T10:06:20.394Z,17.43
2018-05-09T10:08:47.977Z,16.10
2018-05-09T10:11:15.454Z,19.17
2018-05-09T10:13:42.974Z,17.37
2018-05-09T10:16:11.256Z,15.93
2018-05-09T10:18:38.948Z,15.87
2018-05-09T10:21:06.609Z,17.53
2018-05-09T10:23:34.096Z,20.60
2018-05-09T10:26:01.568Z,22.33
2018-05-09T10:28:29.026Z,14.23
2018-05-09T10:30:56.486Z,18.10
2018-05-09T10:33:24.174Z,15.57
2018-05-09T10:35:51.634Z,18.20
2018-05-09T10:38:19.095Z,23.07
2018-05-09T10:40:46.599Z,19.77
2018-05-09T10:43:14.147Z,17.97
2018-05-09T10:45:41.599Z,28.60
2018-05-09T10:48:09.262Z,25.13
2018-05-09T10:50:36.720Z,23.93
2018-05-09T10:53:06.110Z,25.67
2018-05-09T10:55:33.539Z,29.07
2018-05-09T10:58:01.007Z,24.43
2018-05-09T11:00:30.726Z,26.37
2018-05-09T11:02:58.322Z,22.53
2018-05-09T11:05:27.216Z,24.27
2018-05-09T11:07:54.667Z,23.37
2018-05-09T11:10:22.185Z,23.80
2018-05-09T11:12:49.754Z,24.43
2018-05-09T11:15:17.202Z,23.17
2018-05-09T11:17:44.735Z,23.83
2018-05-09T11:20:12.522Z,21.37
2018-05-09T11:22:40.181Z,22.17
2018-05-09T11:25:08.159Z,23.55
2018-05-09T11:27:35.654Z,29.23
2018-05-09T11:30:03.988Z,29.00
2018-05-09T11:32:31.545Z,21.90
2018-05-09T11:34:59.092Z,24.07
2018-05-09T11:37:26.715Z,25.13
2018-05-09T11:39:54.234Z,25.87
2018-05-09T11:42:21.770Z,24.03
2018-05-09T11:44:49.284Z,28.13
2018-05-09T11:47:16.669Z,28.33
2018-05-09T11:49:44.322Z,34.83
2018-05-09T11:52:11.771Z,30.47
2018-05-09T11:54:39.355Z,26.47
2018-05-09T11:57:06.807Z,35.37
2018-05-09T11:59:34.259Z,27.83
2018-05-09T12:02:01.747Z,27.70
2018-05-09T12:04:29.242Z,30.27
2018-05-09T12:06:57.549Z,31.43
2018-05-09T12:09:25.071Z,28.77
2018-05-09T12:11:52.510Z,29.93
2018-05-09T12:14:20.721Z,29.80
2018-05-09T12:16:48.194Z,25.83
2018-05-09T12:19:15.750Z,38.93
2018-05-09T12:21:43.214Z,31.13
2018-05-09T12:24:10.688Z,36.60
2018-05-09T12:26:38.251Z,40.57
2018-05-09T12:29:05.861Z,33.60
2018-05-09T12:31:33.403Z,32.70
2018-05-09T12:34:00.932Z,34.80
2018-05-09T12:36:28.414Z,36.63
2018-05-09T12:38:57.402Z,34.17
2018-05-09T12:41:25.719Z,30.90
2018-05-09T12:43:53.199Z,31.70
2018-05-09T12:46:21.507Z,29.77
2018-05-09T12:48:49.629Z,31.03
2018-05-09T12:51:16.891Z,31.63
2018-05-09T12:53:44.333Z,33.97
2018-05-09T12:56:11.780Z,30.17
2018-05-09T12:58:39.305Z,36.53
2018-05-09T13:01:07.528Z,33.27
2018-05-09T13:03:35.080Z,50.30
2018-05-09T13:06:02.547Z,37.40
2018-05-09T13:08:30.043Z,36.50
2018-05-09T13:10:57.496Z,33.63
2018-05-09T13:13:24.949Z,35.40
2018-05-09T13:15:52.457Z,39.23
2018-05-09T13:18:19.916Z,39.93
2018-05-09T13:20:47.368Z,46.53
2018-05-09T13:23:15.548Z,38.70
2018-05-09T13:25:44.638Z,38.67
2018-05-09T13:28:12.303Z,41.00
2018-05-09T13:30:39.872Z,37.80
2018-05-09T13:33:07.322Z,35.00
2018-05-09T13:35:34.781Z,37.90
2018-05-09T13:38:02.220Z,44.07
2018-05-09T13:40:29.853Z,40.33
2018-05-09T13:42:57.330Z,37.70
2018-05-09T13:45:24.817Z,36.63
2018-05-09T13:47:52.370Z,41.40
2018-05-09T13:50:19.825Z,42.90
2018-05-09T13:52:47.359Z,42.87
2018-05-09T13:55:14.808Z,33.60
2018-05-09T13:57:43.072Z,37.83
2018-05-09T14:00:10.865Z,40.87
2018-05-09T14:02:38.409Z,38.00
2018-05-09T14:05:06.113Z,37.43
2018-05-09T14:07:33.545Z,36.83
2018-05-09T14:10:01.222Z,38.43
2018-05-09T14:12:28.572Z,37.43
2018-05-09T14:14:56.249Z,43.37
2018-05-09T14:17:23.700Z,40.40
2018-05-09T14:19:51.144Z,38.63
2018-05-09T14:22:18.588Z,37.23
2018-05-09T14:24:46.242Z,38.83
2018-05-09T14:27:13.738Z,40.10
2018-05-09T14:29:41.360Z,45.83
2018-05-09T14:32:08.818Z,41.07
2018-05-09T14:34:36.404Z,40.57
2018-05-09T14:37:03.881Z,42.73
2018-05-09T14:39:32.143Z,42.53
2018-05-09T14:42:00.438Z,48.57
2018-05-09T14:44:27.874Z,40.17
2018-05-09T14:46:56.085Z,39.70
2018-05-09T14:49:23.691Z,40.47
2018-05-09T14:51:51.976Z,36.70
2018-05-09T14:54:19.607Z,36.37
2018-05-09T14:56:47.150Z,34.67
2018-05-09T14:59:14.977Z,32.47
2018-05-09T15:01:42.803Z,35.50
2018-05-09T15:04:10.256Z,34.47
2018-05-09T15:06:37.706Z,31.63
2018-05-09T15:09:05.177Z,32.67
2018-05-09T15:11:32.693Z,29.53
2018-05-09T15:14:00.171Z,29.80
2018-05-09T15:16:27.734Z,28.43
2018-05-09T15:18:55.407Z,25.03
2018-05-09T15:21:24.503Z,24.40
2018-05-09T15:23:52.020Z,28.20
2018-05-09T15:26:19.496Z,21.50
2018-05-09T15:28:47.053Z,21.53
2018-05-09T15:31:14.661Z,23.57
2018-05-09T15:33:42.258Z,21.77
2018-05-09T15:36:09.714Z,29.20
2018-05-09T15:38:37.249Z,25.37
2018-05-09T15:41:05.096Z,21.97
2018-05-09T15:43:33.464Z,24.13
2018-05-09T15:46:00.983Z,25.37
2018-05-09T15:48:28.548Z,22.27
2018-05-09T15:50:56.295Z,25.73
2018-05-09T15:53:24.684Z,21.27
2018-05-09T15:55:52.173Z,24.63
2018-05-09T15:58:20.182Z,24.83
2018-05-09T16:00:47.976Z,22.77
2018-05-09T16:03:15.414Z,24.43
2018-05-09T16:05:42.884Z,20.63
2018-05-09T16:08:10.347Z,23.07
2018-05-09T16:10:37.919Z,21.63
2018-05-09T16:13:05.443Z,23.77
2018-05-09T16:15:32.905Z,24.77
2018-05-09T16:18:00.385Z,25.10
2018-05-09T16:20:28.163Z,22.57
2018-05-09T16:22:55.798Z,26.53
2018-05-09T16:25:23.460Z,25.27
2018-05-09T16:27:51.159Z,27.67
2018-05-09T16:30:18.647Z,26.12
2018-05-09T16:32:46.228Z,22.50
2018-05-09T16:35:13.769Z,22.53
2018-05-09T16:37:41.226Z,20.27
2018-05-09T16:40:09.392Z,20.13
2018-05-09T16:42:36.992Z,18.60
2018-05-09T16:45:04.465Z,21.43
2018-05-09T16:47:31.927Z,20.70
2018-05-09T16:49:59.552Z,21.90
2018-05-09T16:52:27.010Z,25.53
2018-05-09T16:54:54.459Z,27.07
2018-05-09T16:57:22.005Z,26.03
2018-05-09T16:59:49.677Z,26.33
2018-05-09T17:02:17.139Z,26.33
2018-05-09T17:04:44.709Z,29.70
2018-05-09T17:07:13.004Z,30.47
2018-05-09T17:09:40.483Z,29.73
2018-05-09T17:12:07.998Z,29.03
2018-05-09T17:14:35.649Z,39.43
2018-05-09T17:17:03.804Z,31.43
2018-05-09T17:19:31.480Z,34.43
2018-05-09T17:22:16.580Z,30.53
2018-05-09T17:24:44.950Z,37.23
2018-05-09T17:27:12.471Z,37.80
2018-05-09T17:29:40.036Z,34.63
2018-05-09T17:32:07.591Z,29.43
2018-05-09T17:34:35.036Z,35.43
2018-05-09T17:37:02.536Z,32.47
2018-05-09T17:39:30.079Z,26.57
2018-05-09T17:41:57.779Z,28.40
2018-05-09T17:44:25.422Z,35.43
2018-05-09T17:46:52.982Z,28.10
2018-05-09T17:49:20.517Z,26.93
2018-05-09T17:51:48.005Z,24.63
2018-05-09T17:54:15.650Z,28.87
2018-05-09T17:56:43.193Z,33.77
2018-05-09T17:59:10.764Z,32.43
2018-05-09T18:01:39.727Z,36.10
2018-05-09T18:04:07.485Z,27.80
2018-05-09T18:06:35.028Z,34.50
2018-05-09T18:09:03.423Z,30.53
2018-05-09T18:11:30.890Z,28.30
2018-05-09T18:13:58.565Z,33.20
2018-05-09T18:16:26.038Z,31.80
2018-05-09T18:18:53.676Z,27.03
2018-05-09T18:21:21.343Z,27.93
2018-05-09T18:23:48.861Z,33.43
2018-05-09T18:26:16.320Z,31.17
2018-05-09T18:28:44.452Z,35.40
2018-05-09T18:31:12.056Z,31.60
2018-05-09T18:33:39.676Z,38.10
2018-05-09T18:36:07.078Z,32.50
2018-05-09T18:38:34.552Z,34.37
2018-05-09T18:41:02.030Z,35.70
2018-05-09T18:43:31.106Z,35.67
2018-05-09T18:45:58.632Z,35.27
2018-05-09T18:48:26.867Z,34.00
2018-05-09T18:50:54.484Z,41.80
2018-05-09T18:53:22.019Z,36.63
2018-05-09T18:55:51.122Z,35.90
2018-05-09T18:58:19.241Z,36.50
2018-05-09T19:00:46.750Z,32.07
2018-05-09T19:03:14.211Z,38.73
2018-05-09T19:05:41.885Z,36.60
2018-05-09T19:08:09.493Z,35.47
2018-05-09T19:10:37.269Z,38.43
2018-05-09T19:13:04.870Z,34.43
2018-05-09T19:15:32.543Z,31.80
2018-05-09T19:18:00.276Z,32.63
2018-05-09T19:20:27.741Z,34.90
2018-05-09T19:22:55.205Z,32.50
2018-05-09T19:25:22.737Z,30.10
2018-05-09T19:27:50.190Z,35.27
2018-05-09T19:30:17.642Z,35.43
2018-05-09T19:32:45.110Z,34.33
2018-05-09T19:35:12.562Z,33.57
2018-05-09T19:37:40.961Z,34.40
2018-05-09T19:40:08.462Z,32.47
2018-05-09T19:42:36.793Z,31.97
2018-05-09T19:45:04.245Z,29.00
2018-05-09T19:47:31.713Z,31.23
2018-05-09T19:49:59.494Z,37.20
2018-05-09T19:52:27.251Z,30.90
2018-05-09T19:54:54.727Z,27.90
2018-05-09T19:57:22.385Z,53.10
2018-05-09T19:59:49.843Z,28.87
2018-05-09T20:02:18.112Z,27.33
2018-05-09T20:04:45.667Z,26.03
2018-05-09T20:07:13.272Z,24.03
2018-05-09T20:09:40.853Z,32.87
2018-05-09T20:12:08.532Z,23.63
2018-05-09T20:14:36.178Z,24.60
2018-05-09T20:17:03.842Z,25.13
2018-05-09T20:19:32.039Z,24.03
2018-05-09T20:22:01.103Z,27.07
2018-05-09T20:24:28.954Z,23.13
2018-05-09T20:26:56.471Z,27.20
2018-05-09T20:29:24.209Z,25.73
2018-05-09T20:32:03.997Z,25.90
2018-05-09T20:34:31.706Z,24.87
2018-05-09T20:36:59.180Z,26.83
2018-05-09T20:39:26.932Z,28.63
2018-05-09T20:41:54.802Z,30.43
2018-05-09T20:44:22.857Z,27.23
2018-05-09T20:46:50.596Z,31.80
2018-05-09T20:49:18.174Z,29.93
2018-05-09T20:51:51.388Z,26.83
2018-05-09T20:54:18.853Z,29.40
2018-05-09T20:56:47.130Z,26.83
2018-05-09T20:59:14.584Z,26.20
2018-05-09T21:01:48.103Z,25.87
2018-05-09T21:04:15.704Z,26.73
2018-05-09T21:06:43.672Z,29.63
2018-05-09T21:09:11.167Z,27.07
2018-05-09T21:11:38.799Z,28.10
2018-05-09T21:14:06.278Z,26.73
2018-05-09T21:16:35.366Z,25.57
2018-05-09T21:19:02.984Z,24.77
2018-05-09T21:21:30.670Z,28.20
2018-05-09T21:23:58.139Z,27.57
2018-05-09T21:26:25.670Z,24.70
2018-05-09T21:28:53.446Z,29.43
2018-05-09T21:31:20.930Z,27.40
2018-05-09T21:33:49.871Z,26.80
2018-05-09T21:36:17.346Z,27.97
2018-05-09T21:38:44.946Z,27.00
2018-05-09T21:41:13.211Z,26.03
2018-05-09T21:43:43.189Z,30.80
2018-05-09T21:46:14.342Z,29.87
2018-05-09T21:48:41.899Z,27.63
2018-05-09T21:51:10.210Z,26.30
2018-05-09T21:53:37.709Z,27.97
2018-05-09T21:56:07.714Z,28.67
2018-05-09T21:58:35.151Z,27.27
2018-05-09T22:01:04.247Z,26.97
2018-05-09T22:03:32.494Z,28.77
2018-05-09T22:06:00.715Z,27.43
2018-05-09T22:08:28.179Z,26.83
2018-05-09T22:10:55.784Z,29.47
2018-05-09T22:13:23.234Z,28.20
2018-05-09T22:15:50.737Z,28.30
2018-05-09T22:18:18.192Z,28.30
2018-05-09T22:20:46.500Z,28.23
2018-05-09T22:23:14.237Z,27.33
2018-05-09T22:25:41.928Z,26.73
2018-05-09T22:28:09.408Z,27.80
2018-05-09T22:30:38.153Z,26.07
2018-05-09T22:33:05.736Z,28.93
2018-05-09T22:35:34.220Z,25.97
2018-05-09T22:38:02.742Z,26.40
2018-05-09T22:40:30.445Z,29.23
2018-05-09T22:42:58.516Z,27.73
2018-05-09T22:45:26.059Z,25.53
2018-05-09T22:47:54.163Z,26.07
2018-05-09T22:50:21.821Z,23.67
2018-05-09T22:52:49.487Z,26.33
2018-05-09T22:55:16.942Z,25.63
2018-05-09T22:57:45.902Z,24.50
2018-05-09T23:00:13.494Z,28.17
2018-05-09T23:02:41.145Z,25.87
2018-05-09T23:05:08.608Z,26.60
2018-05-09T23:07:36.064Z,29.57
2018-05-09T23:10:03.733Z,27.57
2018-05-09T23:12:31.397Z,26.37
2018-05-09T23:14:58.925Z,28.33
2018-05-09T23:17:26.555Z,26.37
2018-05-09T23:19:54.160Z,33.77
2018-05-09T23:22:22.102Z,28.27
2018-05-09T23:24:49.551Z,26.40
2018-05-09T23:27:17.012Z,25.43
2018-05-09T23:29:44.748Z,27.03
2018-05-09T23:32:12.977Z,25.33
2018-05-09T23:34:40.429Z,26.17
2018-05-09T23:37:08.074Z,24.10
2018-05-09T23:39:36.424Z,24.57
2018-05-09T23:42:03.872Z,22.70
2018-05-09T23:44:32.076Z,21.07
2018-05-09T23:46:59.546Z,21.53
2018-05-09T23:49:27.232Z,21.70
2018-05-09T23:51:54.776Z,19.77
2018-05-09T23:54:22.435Z,21.33
2018-05-09T23:56:51.053Z,21.63
2018-05-09T23:59:18.784Z,20.27
